Time;durP1;ratioP1;P1;durP2;ratioP2;P2;SDS_P1;SDS_P2;PMS_P1;PMS_P2;Temp;Humidity;BMP_temperature;BMP_pressure;BME280_temperature;BME280_humidity;BME280_pressure;Samples;Min_cycle;Max_cycle;Signal;HPM_P1;HPM_P2
2024/02/19 00:01:42;;;;;;;;;;;;;;;1.42;98.18;97245.15;108085;1288;22518;-85
2024/02/19 00:04:08;;;;;;;;;;;;;;;1.41;98.17;97245.36;108047;1288;23970;-85
2024/02/19 00:06:35;;;;;;;;;;;;;;;1.43;98.51;97240.98;108126;1287;22505;-85
2024/02/19 00:09:01;;;;;;;;;;;;;;;1.50;98.18;97242.88;108004;1288;24443;-85
2024/02/19 00:11:29;;;;;;;;;;;;;;;1.65;97.99;97238.25;108135;1287;24425;-85
2024/02/19 00:13:57;;;;;;;;;;;;;;;1.87;97.49;97231.48;107974;1288;22511;-85
2024/02/19 00:16:23;;;;;;;;;;;;;;;2.11;97.05;97229.25;108132;1287;22593;-85
2024/02/19 00:18:50;;;;;;;;;;;;;;;2.35;96.84;97229.06;108032;1289;22543;-85
2024/02/19 00:21:17;;;;;;;;;;;;;;;2.47;96.15;97224.27;108037;1288;23850;-85
2024/02/19 00:23:43;;;;;;;;;;;;;;;2.59;95.44;97215.84;108059;1288;25201;-85
2024/02/19 00:26:09;;;;;;;;;;;;;;;2.74;95.17;97212.50;107975;1288;22520;-85
2024/02/19 00:28:36;;;;;;;;;;;;;;;2.87;94.52;97207.27;108036;1271;22552;-86
2024/02/19 00:31:02;;;;;;;;;;;;;;;2.99;93.44;97202.96;108137;1287;23769;-85
2024/02/19 00:33:30;;;;;;;;;;;;;;;3.12;93.74;97203.02;107999;1287;22585;-85
2024/02/19 00:35:57;;;;;;;;;;;;;;;3.21;93.12;97197.56;107993;1288;25268;-85
2024/02/19 00:38:24;;;;;;;;;;;;;;;3.30;92.23;97194.64;108154;1281;25393;-85
2024/02/19 00:40:51;;;;;;;;;;;;;;;3.40;91.25;97185.98;108129;1278;23158;-85
2024/02/19 00:43:17;;;;;;;;;;;;;;;3.51;90.61;97184.41;108081;1287;22507;-85
2024/02/19 00:45:44;;;;;;;;;;;;;;;3.61;89.02;97181.82;108022;1289;22511;-85
2024/02/19 00:48:11;;;;;;;;;;;;;;;3.67;89.39;97177.58;108175;1286;26613;-85
2024/02/19 00:50:38;;;;;;;;;;;;;;;3.72;88.47;97170.34;108156;1281;25384;-85
2024/02/19 00:53:04;;;;;;;;;;;;;;;3.76;88.81;97169.81;108077;1283;22511;-86
2024/02/19 00:55:30;;;;;;;;;;;;;;;3.78;88.41;97162.30;108082;1279;24246;-85
2024/02/19 00:57:58;;;;;;;;;;;;;;;3.83;87.38;97159.20;108186;1270;22523;-86
2024/02/19 01:00:26;;;;;;;;;;;;;;;3.88;87.88;97156.80;108161;1281;22997;-85
2024/02/19 01:02:53;;;;;;;;;;;;;;;3.89;86.50;97152.12;107985;1281;22503;-85
2024/02/19 01:05:20;;;;;;;;;;;;;;;3.93;86.02;97143.80;107992;1288;24228;-85
2024/02/19 01:07:46;;;;;;;;;;;;;;;4.02;85.46;97146.00;108168;1287;22558;-86
2024/02/19 01:10:12;;;;;;;;;;;;;;;4.09;84.41;97139.09;108015;1288;22519;-85
2024/02/19 01:12:39;;;;;;;;;;;;;;;4.15;85.16;97134.50;108148;1287;22511;-85
2024/02/19 01:15:06;;;;;;;;;;;;;;;4.14;85.36;97129.38;107992;1280;22532;-85
2024/02/19 01:17:32;;;;;;;;;;;;;;;4.14;84.67;97128.91;108164;1270;24212;-85
2024/02/19 01:19:58;;;;;;;;;;;;;;;4.19;84.73;97128.16;108147;1287;25264;-85
2024/02/19 01:22:27;;;;;;;;;;;;;;;4.21;84.97;97127.66;108052;1287;24217;-85
2024/02/19 01:24:54;;;;;;;;;;;;;;;4.20;85.10;97125.68;108072;1284;25783;-86
2024/02/19 01:27:22;;;;;;;;;;;;;;;4.18;85.03;97120.34;108072;1289;27504;-85
2024/02/19 01:29:48;;;;;;;;;;;;;;;4.19;85.29;97118.14;108181;1281;25269;-86
2024/02/19 01:32:15;;;;;;;;;;;;;;;4.21;85.30;97115.58;108167;1287;22557;-86
2024/02/19 01:34:41;;;;;;;;;;;;;;;4.26;85.58;97111.04;108164;1287;22525;-85
2024/02/19 01:37:09;;;;;;;;;;;;;;;4.32;86.06;97102.61;108186;1284;22553;-86
2024/02/19 01:39:35;;;;;;;;;;;;;;;4.36;85.56;97096.60;108032;1288;22930;-85
2024/02/19 01:42:03;;;;;;;;;;;;;;;4.44;86.01;97092.16;108154;1289;22511;-85
2024/02/19 01:44:30;;;;;;;;;;;;;;;4.49;86.37;97091.19;108125;1287;25214;-85
2024/02/19 01:46:57;;;;;;;;;;;;;;;4.53;86.73;97083.18;108006;1283;22559;-85
2024/02/19 01:49:25;;;;;;;;;;;;;;;4.57;87.14;97078.27;108069;1287;22555;-85
2024/02/19 01:51:51;;;;;;;;;;;;;;;4.58;87.88;97068.01;108044;1287;26576;-86
2024/02/19 01:54:17;;;;;;;;;;;;;;;4.61;87.28;97068.08;108069;1287;22535;-86
2024/02/19 01:56:44;;;;;;;;;;;;;;;4.71;87.63;97061.23;108005;1280;24897;-86
2024/02/19 01:59:10;;;;;;;;;;;;;;;4.81;87.58;97059.87;108026;1281;25239;-85
2024/02/19 02:01:37;;;;;;;;;;;;;;;4.90;87.14;97051.56;108056;1287;25416;-85
2024/02/19 02:04:06;;;;;;;;;;;;;;;5.01;87.61;97045.27;108010;1287;22531;-85
2024/02/19 02:06:33;;;;;;;;;;;;;;;5.10;86.54;97044.23;107975;1280;22555;-85
2024/02/19 02:08:59;;;;;;;;;;;;;;;5.21;86.42;97037.20;108007;1287;22514;-85
2024/02/19 02:11:26;;;;;;;;;;;;;;;5.31;86.26;97036.02;107991;1288;22523;-85
2024/02/19 02:13:52;;;;;;;;;;;;;;;5.38;86.09;97026.63;108031;1287;22524;-85
2024/02/19 02:16:26;;;;;;;;;;;;;;;5.44;85.27;97018.80;107983;1288;22514;-85
2024/02/19 02:18:52;;;;;;;;;;;;;;;5.51;85.18;97012.09;108041;1283;25388;-85
2024/02/19 02:21:19;;;;;;;;;;;;;;;5.61;84.42;97013.65;108008;1281;22500;-85
2024/02/19 02:23:45;;;;;;;;;;;;;;;5.68;84.46;97009.87;108075;1281;22512;-85
2024/02/19 02:26:12;;;;;;;;;;;;;;;5.75;84.20;97007.41;108005;1284;22536;-85
2024/02/19 02:28:38;;;;;;;;;;;;;;;5.79;84.83;97005.31;108073;1281;23774;-85
2024/02/19 02:31:05;;;;;;;;;;;;;;;5.81;84.49;97005.98;108160;1269;25407;-85
2024/02/19 02:33:31;;;;;;;;;;;;;;;5.83;84.43;97000.48;108067;1273;23241;-85
2024/02/19 02:35:57;;;;;;;;;;;;;;;5.85;84.01;96997.58;108156;1287;22559;-85
2024/02/19 02:38:24;;;;;;;;;;;;;;;5.88;83.96;96995.80;108163;1287;23673;-85
2024/02/19 02:40:53;;;;;;;;;;;;;;;5.90;83.39;96998.16;108031;1288;23876;-85
2024/02/19 02:43:19;;;;;;;;;;;;;;;5.90;83.27;96988.06;108194;1287;22515;-85
2024/02/19 02:45:46;;;;;;;;;;;;;;;5.92;83.69;96984.57;108143;1287;23980;-85
2024/02/19 02:48:14;;;;;;;;;;;;;;;5.94;83.97;96978.56;108142;1287;22541;-85
2024/02/19 02:50:40;;;;;;;;;;;;;;;5.99;84.08;96975.89;108123;1288;22507;-85
2024/02/19 02:53:06;;;;;;;;;;;;;;;6.01;84.47;96971.38;108083;1287;23986;-85
2024/02/19 02:55:33;;;;;;;;;;;;;;;6.00;84.09;96965.94;108147;1281;22563;-86
2024/02/19 02:58:00;;;;;;;;;;;;;;;6.01;83.76;96967.35;108075;1288;22522;-85
2024/02/19 03:00:26;;;;;;;;;;;;;;;6.03;83.50;96961.95;108000;1287;22529;-85
2024/02/19 03:02:52;;;;;;;;;;;;;;;6.02;84.02;96957.38;107999;1289;22543;-85
2024/02/19 03:05:19;;;;;;;;;;;;;;;6.01;84.65;96956.25;108063;1287;23661;-85
2024/02/19 03:07:45;;;;;;;;;;;;;;;5.98;84.60;96957.86;108006;1286;22639;-86
2024/02/19 03:10:12;;;;;;;;;;;;;;;5.96;84.28;96954.34;108117;1287;22515;-85
2024/02/19 03:12:39;;;;;;;;;;;;;;;5.93;84.47;96958.85;108045;1289;22544;-86
2024/02/19 03:15:06;;;;;;;;;;;;;;;5.93;84.80;96954.23;108034;1284;22508;-85
2024/02/19 03:17:32;;;;;;;;;;;;;;;5.91;84.77;96948.58;108027;1285;27729;-85
2024/02/19 03:19:59;;;;;;;;;;;;;;;5.90;84.58;96945.70;108151;1281;22569;-85
2024/02/19 03:22:25;;;;;;;;;;;;;;;5.91;85.07;96946.15;108158;1286;22515;-85
2024/02/19 03:24:52;;;;;;;;;;;;;;;5.90;85.14;96943.86;108031;1287;22508;-85
2024/02/19 03:27:18;;;;;;;;;;;;;;;5.88;85.44;96944.65;108011;1288;22511;-85
2024/02/19 03:29:45;;;;;;;;;;;;;;;5.88;85.29;96941.25;108033;1287;22556;-85
2024/02/19 03:32:11;;;;;;;;;;;;;;;5.89;85.82;96934.65;108052;1289;22511;-84
2024/02/19 03:34:37;;;;;;;;;;;;;;;5.91;86.21;96933.06;108006;1287;22513;-85
2024/02/19 03:37:04;;;;;;;;;;;;;;;5.93;85.96;96937.16;108152;1269;22567;-85
2024/02/19 03:39:30;;;;;;;;;;;;;;;5.93;85.89;96932.38;108172;1287;22516;-85
2024/02/19 03:41:57;;;;;;;;;;;;;;;5.92;86.13;96926.58;108156;1264;22546;-85
2024/02/19 03:44:23;;;;;;;;;;;;;;;5.94;86.48;96920.63;108148;1287;22502;-86
2024/02/19 03:46:49;;;;;;;;;;;;;;;5.99;86.77;96915.83;108168;1287;22563;-85
2024/02/19 03:49:17;;;;;;;;;;;;;;;6.03;86.83;96907.60;108148;1286;24220;-85
2024/02/19 03:51:44;;;;;;;;;;;;;;;6.05;86.55;96903.15;108143;1287;25268;-85
2024/02/19 03:54:10;;;;;;;;;;;;;;;6.07;86.60;96905.50;108027;1289;22522;-85
2024/02/19 03:56:37;;;;;;;;;;;;;;;6.06;86.69;96902.13;108144;1286;22597;-85
2024/02/19 03:59:03;;;;;;;;;;;;;;;6.06;86.51;96894.46;108039;1287;23650;-86
2024/02/19 04:01:29;;;;;;;;;;;;;;;6.08;86.79;96897.70;108033;1288;24183;-85
2024/02/19 04:03:56;;;;;;;;;;;;;;;6.08;86.41;96895.48;108011;1283;23278;-85
2024/02/19 04:06:22;;;;;;;;;;;;;;;6.08;86.34;96894.88;108133;1287;23488;-85
2024/02/19 04:08:49;;;;;;;;;;;;;;;6.08;86.73;96886.80;108045;1274;22516;-85
2024/02/19 04:11:16;;;;;;;;;;;;;;;6.07;86.51;96884.66;108184;1279;22548;-86
2024/02/19 04:13:42;;;;;;;;;;;;;;;6.07;86.90;96882.50;108165;1285;22581;-85
2024/02/19 04:16:09;;;;;;;;;;;;;;;6.06;86.72;96882.26;108090;1287;27095;-87
2024/02/19 04:18:36;;;;;;;;;;;;;;;6.05;86.50;96879.52;108136;1287;24227;-87
2024/02/19 04:21:02;;;;;;;;;;;;;;;6.06;86.84;96873.30;108057;1288;23839;-87
2024/02/19 04:23:29;;;;;;;;;;;;;;;6.06;86.78;96871.42;108154;1286;22530;-87
2024/02/19 04:25:55;;;;;;;;;;;;;;;6.06;86.65;96865.53;108146;1279;23328;-87
2024/02/19 04:28:22;;;;;;;;;;;;;;;6.07;86.86;96868.70;108007;1287;22513;-87
2024/02/19 04:30:48;;;;;;;;;;;;;;;6.08;86.63;96865.73;108158;1288;22511;-86
2024/02/19 04:33:15;;;;;;;;;;;;;;;6.09;86.61;96862.02;108198;1277;22558;-87
2024/02/19 04:35:41;;;;;;;;;;;;;;;6.08;86.75;96861.52;108058;1287;24207;-87
2024/02/19 04:38:08;;;;;;;;;;;;;;;6.09;86.89;96857.05;107998;1287;22508;-87
2024/02/19 04:40:34;;;;;;;;;;;;;;;6.08;86.75;96852.11;108018;1287;22508;-87
2024/02/19 04:43:01;;;;;;;;;;;;;;;6.09;86.64;96850.66;108046;1287;22507;-87
2024/02/19 04:45:28;;;;;;;;;;;;;;;6.10;86.53;96849.84;108040;1288;22540;-87
2024/02/19 04:47:55;;;;;;;;;;;;;;;6.10;86.53;96845.32;108147;1285;22532;-86
2024/02/19 04:50:21;;;;;;;;;;;;;;;6.12;86.62;96844.18;108153;1288;25397;-87
2024/02/19 04:52:48;;;;;;;;;;;;;;;6.12;86.70;96839.13;108030;1283;22507;-87
2024/02/19 04:55:15;;;;;;;;;;;;;;;6.14;86.38;96836.55;108003;1288;23211;-87
2024/02/19 04:57:41;;;;;;;;;;;;;;;6.16;86.35;96838.23;108036;1287;23057;-86
2024/02/19 05:00:08;;;;;;;;;;;;;;;6.18;86.61;96835.33;108028;1288;22508;-87
2024/02/19 05:02:35;;;;;;;;;;;;;;;6.20;86.54;96834.16;108063;1287;22537;-87
2024/02/19 05:05:01;;;;;;;;;;;;;;;6.21;86.15;96841.38;108034;1288;23276;-86
2024/02/19 05:07:27;;;;;;;;;;;;;;;6.24;86.00;96837.04;108041;1287;24936;-87
2024/02/19 05:09:54;;;;;;;;;;;;;;;6.24;86.15;96834.27;107983;1283;22553;-87
2024/02/19 05:12:20;;;;;;;;;;;;;;;6.24;85.98;96829.08;108028;1287;22527;-87
2024/02/19 05:14:47;;;;;;;;;;;;;;;6.26;85.91;96819.88;108035;1281;22510;-87
2024/02/19 05:17:13;;;;;;;;;;;;;;;6.30;85.83;96820.39;108176;1287;22754;-87
2024/02/19 05:19:41;;;;;;;;;;;;;;;6.32;85.77;96811.98;108013;1288;22512;-87
2024/02/19 05:22:08;;;;;;;;;;;;;;;6.30;85.75;96803.49;108005;1287;22516;-87
2024/02/19 05:24:35;;;;;;;;;;;;;;;6.29;85.85;96801.23;108057;1289;22507;-87
2024/02/19 05:27:01;;;;;;;;;;;;;;;6.28;85.86;96804.47;108160;1287;22677;-87
2024/02/19 05:29:27;;;;;;;;;;;;;;;6.26;85.83;96806.70;108089;1288;22731;-86
2024/02/19 05:31:54;;;;;;;;;;;;;;;6.26;85.56;96808.91;108016;1288;22547;-87
2024/02/19 05:34:20;;;;;;;;;;;;;;;6.27;85.57;96810.52;108004;1284;22608;-87
2024/02/19 05:36:47;;;;;;;;;;;;;;;6.27;85.83;96813.11;108012;1289;24212;-87
2024/02/19 05:39:13;;;;;;;;;;;;;;;6.26;85.93;96803.74;108148;1287;24509;-86
2024/02/19 05:41:40;;;;;;;;;;;;;;;6.28;85.81;96806.45;108025;1287;22519;-87
2024/02/19 05:44:06;;;;;;;;;;;;;;;6.31;85.89;96803.63;108046;1283;25491;-87
2024/02/19 05:46:36;;;;;;;;;;;;;;;6.33;85.86;96801.88;108104;1287;23248;-87
2024/02/19 05:49:03;;;;;;;;;;;;;;;6.36;85.94;96813.83;108071;1289;22544;-87
2024/02/19 05:51:29;;;;;;;;;;;;;;;6.38;85.84;96821.91;108072;1287;22511;-87
2024/02/19 05:53:56;;;;;;;;;;;;;;;6.37;86.23;96821.49;107986;1288;22625;-87
2024/02/19 05:56:22;;;;;;;;;;;;;;;6.35;86.25;96814.82;108056;1282;22568;-87
2024/02/19 05:58:49;;;;;;;;;;;;;;;6.34;86.35;96820.86;108202;1287;22541;-87
2024/02/19 06:01:16;;;;;;;;;;;;;;;6.33;86.68;96818.23;108115;1288;22562;-87
2024/02/19 06:03:43;;;;;;;;;;;;;;;6.32;86.90;96818.64;108065;1289;22581;-88
2024/02/19 06:06:09;;;;;;;;;;;;;;;6.32;86.80;96815.44;108018;1289;22534;-87
2024/02/19 06:08:36;;;;;;;;;;;;;;;6.32;86.93;96821.27;108066;1289;23273;-87
2024/02/19 06:11:02;;;;;;;;;;;;;;;6.31;87.11;96820.80;108044;1289;22535;-87
2024/02/19 06:13:29;;;;;;;;;;;;;;;6.31;87.16;96816.92;108007;1289;22536;-87
2024/02/19 06:15:55;;;;;;;;;;;;;;;6.33;87.23;96816.03;108152;1289;22512;-87
2024/02/19 06:18:22;;;;;;;;;;;;;;;6.34;87.38;96806.96;108038;1288;22511;-87
2024/02/19 06:20:48;;;;;;;;;;;;;;;6.37;87.50;96811.91;108021;1289;22627;-87
2024/02/19 06:23:14;;;;;;;;;;;;;;;6.40;87.49;96807.15;108151;1286;22545;-87
2024/02/19 06:25:42;;;;;;;;;;;;;;;6.44;87.81;96813.94;108063;1286;22546;-87
2024/02/19 06:28:08;;;;;;;;;;;;;;;6.49;87.57;96813.46;108019;1285;23039;-87
2024/02/19 06:30:35;;;;;;;;;;;;;;;6.51;87.66;96812.27;108085;1283;23240;-87
2024/02/19 06:33:01;;;;;;;;;;;;;;;6.51;88.07;96816.58;108039;1283;22502;-88
2024/02/19 06:35:28;;;;;;;;;;;;;;;6.49;88.30;96815.28;108066;1289;22527;-87
2024/02/19 06:37:55;;;;;;;;;;;;;;;6.49;88.95;96818.76;108060;1287;25281;-87
2024/02/19 06:40:21;;;;;;;;;;;;;;;6.47;89.46;96824.70;108038;1277;22507;-87
2024/02/19 06:42:48;;;;;;;;;;;;;;;6.42;89.57;96817.02;108055;1283;22539;-88
2024/02/19 06:45:19;;;;;;;;;;;;;;;6.40;90.00;96819.97;108068;1280;25402;-88
2024/02/19 06:47:45;;;;;;;;;;;;;;;6.38;90.17;96817.11;108059;1287;22522;-88
2024/02/19 06:50:11;;;;;;;;;;;;;;;6.35;90.48;96818.61;108075;1284;22531;-87
2024/02/19 06:52:43;;;;;;;;;;;;;;;6.31;90.83;96817.50;108057;1283;25075;-87
2024/02/19 06:55:09;;;;;;;;;;;;;;;6.30;90.57;96816.45;108101;1277;24216;-87
2024/02/19 06:57:36;;;;;;;;;;;;;;;6.29;90.83;96808.16;108061;1287;26609;-87
2024/02/19 07:00:02;;;;;;;;;;;;;;;6.28;91.20;96808.91;108153;1286;22535;-88
2024/02/19 07:02:29;;;;;;;;;;;;;;;6.30;91.25;96801.67;108093;1287;23086;-88
2024/02/19 07:04:55;;;;;;;;;;;;;;;6.31;91.17;96800.85;108040;1289;22943;-87
2024/02/19 07:07:22;;;;;;;;;;;;;;;6.33;91.20;96802.42;108025;1282;22504;-87
2024/02/19 07:09:51;;;;;;;;;;;;;;;6.34;91.08;96799.40;108171;1282;23241;-87
2024/02/19 07:12:17;;;;;;;;;;;;;;;6.35;91.16;96797.24;108070;1283;22517;-87
2024/02/19 07:14:44;;;;;;;;;;;;;;;6.36;91.30;96797.70;108197;1282;22552;-87
2024/02/19 07:17:10;;;;;;;;;;;;;;;6.37;91.47;96791.06;108139;1283;22558;-87
2024/02/19 07:19:36;;;;;;;;;;;;;;;6.37;91.57;96789.30;108039;1283;23087;-86
2024/02/19 07:22:03;;;;;;;;;;;;;;;6.39;91.16;96787.05;107982;1289;22522;-87
2024/02/19 07:24:30;;;;;;;;;;;;;;;6.41;90.79;96782.07;108047;1288;24206;-88
2024/02/19 07:26:57;;;;;;;;;;;;;;;6.44;91.09;96781.44;107977;1289;25268;-88
2024/02/19 07:29:23;;;;;;;;;;;;;;;6.44;91.14;96782.77;108088;1282;22523;-88
2024/02/19 07:31:51;;;;;;;;;;;;;;;6.46;90.97;96779.69;108087;1287;22517;-88
2024/02/19 07:34:17;;;;;;;;;;;;;;;6.47;90.84;96765.98;108048;1284;27404;-88
2024/02/19 07:36:45;;;;;;;;;;;;;;;6.52;91.72;96765.14;108097;1287;24215;-88
2024/02/19 07:39:11;;;;;;;;;;;;;;;6.59;91.67;96757.70;108044;1288;22687;-88
2024/02/19 07:41:38;;;;;;;;;;;;;;;6.66;92.12;96757.27;107950;1288;22526;-88
2024/02/19 07:44:04;;;;;;;;;;;;;;;6.74;91.62;96766.66;108031;1288;22566;-88
2024/02/19 07:46:34;;;;;;;;;;;;;;;6.79;91.26;96761.56;108084;1288;22515;-88
2024/02/19 07:49:00;;;;;;;;;;;;;;;6.82;90.90;96768.29;108045;1283;22563;-88
2024/02/19 07:51:27;;;;;;;;;;;;;;;6.83;90.58;96764.19;108069;1288;22522;-88
2024/02/19 07:53:53;;;;;;;;;;;;;;;6.86;90.82;96763.98;108051;1288;22579;-88
2024/02/19 07:56:20;;;;;;;;;;;;;;;6.87;90.78;96761.58;108065;1288;22511;-85
2024/02/19 07:58:46;;;;;;;;;;;;;;;6.89;90.94;96761.91;108069;1289;22544;-85
2024/02/19 08:01:13;;;;;;;;;;;;;;;6.90;91.02;96761.92;108085;1289;22679;-85
2024/02/19 08:03:39;;;;;;;;;;;;;;;6.91;90.84;96762.19;108057;1284;22508;-86
2024/02/19 08:06:07;;;;;;;;;;;;;;;6.92;91.17;96762.15;108073;1283;22514;-87
2024/02/19 08:08:33;;;;;;;;;;;;;;;6.89;91.04;96749.80;108078;1279;23116;-86
2024/02/19 08:11:00;;;;;;;;;;;;;;;6.90;90.96;96758.14;108054;1283;22699;-86
2024/02/19 08:13:26;;;;;;;;;;;;;;;6.90;91.28;96760.58;108044;1283;22528;-86
2024/02/19 08:15:53;;;;;;;;;;;;;;;6.92;91.28;96765.60;108082;1284;24289;-86
2024/02/19 08:18:20;;;;;;;;;;;;;;;6.92;91.03;96762.29;108183;1287;22532;-86
2024/02/19 08:20:47;;;;;;;;;;;;;;;6.91;90.97;96760.66;108140;1283;22554;-87
2024/02/19 08:23:14;;;;;;;;;;;;;;;6.91;90.91;96762.08;108230;1287;22557;-86
2024/02/19 08:25:41;;;;;;;;;;;;;;;6.91;91.45;96760.13;108183;1287;22532;-87
2024/02/19 08:28:07;;;;;;;;;;;;;;;6.95;91.65;96757.94;108159;1287;22516;-86
2024/02/19 08:30:34;;;;;;;;;;;;;;;6.96;91.64;96759.50;108187;1281;23322;-86
2024/02/19 08:33:00;;;;;;;;;;;;;;;6.97;91.59;96758.34;108021;1287;23233;-86
2024/02/19 08:35:27;;;;;;;;;;;;;;;6.98;91.73;96753.98;108038;1287;22644;-86
2024/02/19 08:37:53;;;;;;;;;;;;;;;6.99;91.80;96757.87;108048;1287;22522;-87
2024/02/19 08:40:20;;;;;;;;;;;;;;;6.99;91.85;96765.05;108104;1281;24370;-87
2024/02/19 08:42:47;;;;;;;;;;;;;;;6.99;91.79;96764.88;108063;1281;22528;-87
2024/02/19 08:45:14;;;;;;;;;;;;;;;6.98;91.90;96759.13;108133;1281;22533;-87
2024/02/19 08:47:41;;;;;;;;;;;;;;;6.96;92.00;96759.69;108064;1281;22549;-87
2024/02/19 08:50:08;;;;;;;;;;;;;;;6.94;92.33;96752.96;108081;1287;22535;-87
2024/02/19 08:52:34;;;;;;;;;;;;;;;6.95;92.71;96756.69;108075;1281;22528;-87
2024/02/19 08:55:01;;;;;;;;;;;;;;;6.94;92.42;96752.10;108069;1283;23677;-87
2024/02/19 08:57:27;;;;;;;;;;;;;;;6.94;92.59;96750.73;108141;1281;22511;-87
2024/02/19 08:59:54;;;;;;;;;;;;;;;6.96;92.90;96752.33;108113;1281;24335;-87
2024/02/19 09:02:21;;;;;;;;;;;;;;;6.97;92.52;96756.27;108040;1287;26460;-87
2024/02/19 09:04:47;;;;;;;;;;;;;;;6.98;92.64;96756.22;108135;1287;22504;-87
2024/02/19 09:07:14;;;;;;;;;;;;;;;6.98;92.54;96751.05;108148;1277;22530;-87
2024/02/19 09:09:44;;;;;;;;;;;;;;;7.00;92.61;96753.66;108053;1283;23869;-87
2024/02/19 09:12:11;;;;;;;;;;;;;;;7.01;92.56;96745.80;108158;1287;25449;-87
2024/02/19 09:14:38;;;;;;;;;;;;;;;7.02;92.69;96750.81;108047;1288;25413;-86
2024/02/19 09:17:05;;;;;;;;;;;;;;;7.04;92.79;96734.61;108033;1287;23770;-87
2024/02/19 09:19:31;;;;;;;;;;;;;;;7.05;92.82;96733.67;107920;1289;167461;-87
2024/02/19 09:21:58;;;;;;;;;;;;;;;7.07;92.59;96742.39;108034;1286;22522;-87
2024/02/19 09:24:25;;;;;;;;;;;;;;;7.08;92.98;96736.24;108063;1287;22521;-87
2024/02/19 09:26:52;;;;;;;;;;;;;;;7.09;92.98;96742.39;108194;1287;22589;-87
2024/02/19 09:29:18;;;;;;;;;;;;;;;7.09;92.64;96739.13;108059;1283;22528;-87
2024/02/19 09:31:45;;;;;;;;;;;;;;;7.11;92.46;96745.73;107981;1288;22520;-87
2024/02/19 09:34:11;;;;;;;;;;;;;;;7.15;92.58;96740.59;108131;1286;22536;-87
2024/02/19 09:36:38;;;;;;;;;;;;;;;7.19;92.81;96746.58;108058;1287;22560;-88
2024/02/19 09:39:04;;;;;;;;;;;;;;;7.22;93.00;96737.09;108061;1288;22516;-88
2024/02/19 09:41:30;;;;;;;;;;;;;;;7.26;92.96;96740.89;108052;1287;25416;-88
2024/02/19 09:43:57;;;;;;;;;;;;;;;7.30;93.20;96734.48;108048;1280;22524;-88
2024/02/19 09:46:24;;;;;;;;;;;;;;;7.33;93.38;96738.16;108187;1281;22556;-88
2024/02/19 09:48:51;;;;;;;;;;;;;;;7.35;93.10;96736.59;108079;1288;22547;-88
2024/02/19 09:51:18;;;;;;;;;;;;;;;7.36;93.17;96734.40;108027;1287;22531;-88
2024/02/19 09:53:45;;;;;;;;;;;;;;;7.37;93.38;96731.52;108146;1281;22588;-85
2024/02/19 09:56:17;;;;;;;;;;;;;;;7.39;93.27;96735.28;108073;1287;22534;-85
2024/02/19 09:58:46;;;;;;;;;;;;;;;7.41;93.80;96740.88;109457;1281;22351;-86
2024/02/19 10:01:13;;;;;;;;;;;;;;;7.44;93.69;96735.27;109651;1280;22784;-86
2024/02/19 10:03:39;;;;;;;;;;;;;;;7.45;93.68;96732.20;109540;1288;22426;-86
2024/02/19 10:06:05;;;;;;;;;;;;;;;7.47;93.52;96727.52;109608;1281;22395;-86
2024/02/19 10:08:32;;;;;;;;;;;;;;;7.51;93.55;96722.82;109667;1287;23108;-86
2024/02/19 10:11:00;;;;;;;;;;;;;;;7.57;93.83;96722.94;109393;1289;22410;-86
2024/02/19 10:13:27;;;;;;;;;;;;;;;7.61;93.42;96719.06;108381;1281;22511;-86
2024/02/19 10:15:53;;;;;;;;;;;;;;;7.62;93.16;96720.33;108094;1287;23883;-85
2024/02/19 10:18:20;;;;;;;;;;;;;;;7.62;92.95;96713.48;108171;1287;25397;-85
2024/02/19 10:20:47;;;;;;;;;;;;;;;7.60;92.58;96705.58;108114;1279;22571;-87
2024/02/19 10:23:13;;;;;;;;;;;;;;;7.59;92.34;96699.85;108064;1283;24950;-87
2024/02/19 10:25:40;;;;;;;;;;;;;;;7.58;92.39;96702.53;108189;1281;22581;-86
2024/02/19 10:28:08;;;;;;;;;;;;;;;7.57;92.78;96705.18;108057;1281;22519;-86
2024/02/19 10:30:34;;;;;;;;;;;;;;;7.57;93.09;96702.63;108052;1283;22518;-86
2024/02/19 10:33:01;;;;;;;;;;;;;;;7.56;93.29;96706.67;108074;1281;25429;-87
2024/02/19 10:35:28;;;;;;;;;;;;;;;7.54;93.42;96704.11;108052;1281;23210;-87
2024/02/19 10:37:58;;;;;;;;;;;;;;;7.55;93.48;96701.10;107957;1281;23951;-86
2024/02/19 10:40:24;;;;;;;;;;;;;;;7.56;93.28;96699.75;108154;1287;23297;-87
2024/02/19 10:42:51;;;;;;;;;;;;;;;7.54;93.22;96694.13;108144;1287;25403;-87
2024/02/19 10:45:21;;;;;;;;;;;;;;;7.52;93.14;96698.58;108042;1288;22627;-87
2024/02/19 10:47:57;;;;;;;;;;;;;;;7.53;93.53;96694.54;108052;1287;22530;-87
2024/02/19 10:50:23;;;;;;;;;;;;;;;7.53;94.00;96686.40;108033;1283;22514;-87
2024/02/19 10:52:51;;;;;;;;;;;;;;;7.56;94.18;96686.98;108182;1287;24856;-87
2024/02/19 10:55:22;;;;;;;;;;;;;;;7.58;94.12;96683.85;108062;1289;24209;-87
2024/02/19 10:57:49;;;;;;;;;;;;;;;7.62;94.42;96682.37;108061;1287;25406;-87
2024/02/19 11:00:16;;;;;;;;;;;;;;;7.66;94.21;96675.81;108096;1289;22546;-86
2024/02/19 11:02:43;;;;;;;;;;;;;;;7.67;93.71;96675.50;109524;1287;23132;-87
2024/02/19 11:05:10;;;;;;;;;;;;;;;7.69;93.82;96674.11;108915;1283;22580;-87
2024/02/19 11:07:36;;;;;;;;;;;;;;;7.73;93.87;96676.83;108165;1288;22558;-87
2024/02/19 11:10:04;;;;;;;;;;;;;;;7.76;93.39;96675.84;108080;1288;22515;-88
2024/02/19 11:12:31;;;;;;;;;;;;;;;7.79;93.42;96674.80;108107;1288;22511;-86
2024/02/19 11:14:57;;;;;;;;;;;;;;;7.80;93.60;96673.53;108101;1289;22505;-86
2024/02/19 11:17:24;;;;;;;;;;;;;;;7.83;93.46;96668.02;108016;1285;22495;-87
2024/02/19 11:19:52;;;;;;;;;;;;;;;7.85;93.42;96658.48;108057;1288;22653;-86
2024/02/19 11:22:22;;;;;;;;;;;;;;;7.90;93.85;96660.42;108085;1287;22621;-86
2024/02/19 11:24:50;;;;;;;;;;;;;;;7.96;94.23;96661.69;108091;1281;22559;-86
2024/02/19 11:27:16;;;;;;;;;;;;;;;8.01;94.47;96655.45;108085;1287;22515;-86
2024/02/19 11:29:43;;;;;;;;;;;;;;;8.05;94.03;96651.23;108045;1286;22519;-86
2024/02/19 11:32:10;;;;;;;;;;;;;;;8.08;93.86;96649.33;108024;1287;24280;-86
2024/02/19 11:34:36;;;;;;;;;;;;;;;8.12;94.04;96652.70;107995;1281;22541;-86
2024/02/19 11:37:03;;;;;;;;;;;;;;;8.13;93.42;96648.30;108071;1286;22511;-87
2024/02/19 11:39:30;;;;;;;;;;;;;;;8.13;93.38;96647.30;108045;1286;22534;-87
2024/02/19 11:41:57;;;;;;;;;;;;;;;8.12;93.32;96644.77;108006;1281;22521;-87
2024/02/19 11:44:24;;;;;;;;;;;;;;;8.13;93.22;96649.20;108080;1287;22508;-87
2024/02/19 11:46:56;;;;;;;;;;;;;;;8.17;93.76;96646.21;108082;1288;22549;-87
2024/02/19 11:49:23;;;;;;;;;;;;;;;8.21;93.55;96642.40;108015;1287;23825;-87
2024/02/19 11:51:49;;;;;;;;;;;;;;;8.22;93.10;96645.21;108076;1286;23903;-87
2024/02/19 11:54:16;;;;;;;;;;;;;;;8.24;93.13;96635.64;108077;1288;24352;-86
2024/02/19 11:56:43;;;;;;;;;;;;;;;8.30;93.59;96629.46;108169;1280;22533;-87
2024/02/19 11:59:10;;;;;;;;;;;;;;;8.36;93.35;96636.42;108165;1287;25590;-86
2024/02/19 12:01:37;;;;;;;;;;;;;;;8.41;93.13;96634.50;108099;1288;22533;-86
2024/02/19 12:04:03;;;;;;;;;;;;;;;8.43;92.41;96649.14;109543;1283;23282;-87
2024/02/19 12:06:33;;;;;;;;;;;;;;;8.41;91.78;96649.48;109575;1288;22415;-87
2024/02/19 12:09:00;;;;;;;;;;;;;;;8.40;91.86;96657.09;109673;1281;22403;-86
2024/02/19 12:11:27;;;;;;;;;;;;;;;8.40;91.61;96656.55;109543;1288;22404;-87
2024/02/19 12:13:53;;;;;;;;;;;;;;;8.38;90.99;96653.83;109449;1287;22539;-86
2024/02/19 12:16:20;;;;;;;;;;;;;;;8.35;90.94;96650.34;108044;1283;22603;-86
2024/02/19 12:18:47;;;;;;;;;;;;;;;8.33;90.84;96651.27;108054;1287;22536;-86
2024/02/19 12:21:14;;;;;;;;;;;;;;;8.30;90.84;96655.52;108008;1288;23760;-87
2024/02/19 12:23:42;;;;;;;;;;;;;;;8.26;90.78;96652.48;108102;1287;22518;-87
2024/02/19 12:26:09;;;;;;;;;;;;;;;8.22;90.86;96655.56;108071;1281;22927;-86
2024/02/19 12:28:36;;;;;;;;;;;;;;;8.18;90.95;96652.36;108073;1281;23766;-86
2024/02/19 12:31:02;;;;;;;;;;;;;;;8.15;90.78;96651.27;108146;1280;23293;-86
2024/02/19 12:33:28;;;;;;;;;;;;;;;8.11;90.50;96644.41;108030;1281;22510;-86
2024/02/19 12:35:55;;;;;;;;;;;;;;;8.06;90.80;96646.77;108033;1277;22522;-87
2024/02/19 12:38:21;;;;;;;;;;;;;;;8.02;91.12;96640.40;108022;1286;22961;-86
2024/02/19 12:40:48;;;;;;;;;;;;;;;7.98;91.04;96640.56;108011;1287;23297;-87
2024/02/19 12:43:14;;;;;;;;;;;;;;;7.96;91.40;96631.88;108063;1283;22590;-86
2024/02/19 12:45:43;;;;;;;;;;;;;;;7.95;91.65;96638.13;108011;1288;25102;-87